sensor_id;sensor_type;location;lat;lon;timestamp;P1;durP1;ratioP1;P2;durP2;ratioP2
68523;SDS011;55524;51.380;13.372;2022-09-09T00:01:05;2.25;;;1.48;;
68523;SDS011;55524;51.380;13.372;2022-09-09T00:07:25;2.35;;;1.50;;
68523;SDS011;55524;51.380;13.372;2022-09-09T00:15:25;4.38;;;1.75;;
68523;SDS011;55524;51.380;13.372;2022-09-09T00:18:11;4.15;;;1.60;;
68523;SDS011;55524;51.380;13.372;2022-09-09T00:20:53;3.70;;;2.00;;
68523;SDS011;55524;51.380;13.372;2022-09-09T00:23:28;3.08;;;1.60;;
68523;SDS011;55524;51.380;13.372;2022-09-09T00:28:38;5.30;;;1.80;;
68523;SDS011;55524;51.380;13.372;2022-09-09T00:31:29;3.63;;;1.40;;
68523;SDS011;55524;51.380;13.372;2022-09-09T00:33:58;2.33;;;1.42;;
68523;SDS011;55524;51.380;13.372;2022-09-09T00:36:56;2.03;;;1.40;;
68523;SDS011;55524;51.380;13.372;2022-09-09T00:42:13;2.03;;;1.35;;
68523;SDS011;55524;51.380;13.372;2022-09-09T00:52:44;2.75;;;1.27;;
68523;SDS011;55524;51.380;13.372;2022-09-09T00:58:11;1.65;;;1.55;;
68523;SDS011;55524;51.380;13.372;2022-09-09T01:00:43;2.65;;;1.40;;
68523;SDS011;55524;51.380;13.372;2022-09-09T01:03:37;3.33;;;1.38;;
68523;SDS011;55524;51.380;13.372;2022-09-09T01:06:33;1.67;;;1.58;;
68523;SDS011;55524;51.380;13.372;2022-09-09T01:12:43;1.58;;;1.30;;
68523;SDS011;55524;51.380;13.372;2022-09-09T01:15:24;1.50;;;1.38;;
68523;SDS011;55524;51.380;13.372;2022-09-09T01:18:02;1.58;;;1.27;;
68523;SDS011;55524;51.380;13.372;2022-09-09T01:20:42;3.25;;;1.40;;
68523;SDS011;55524;51.380;13.372;2022-09-09T01:23:35;1.98;;;1.20;;
68523;SDS011;55524;51.380;13.372;2022-09-09T01:26:25;2.65;;;1.40;;
68523;SDS011;55524;51.380;13.372;2022-09-09T01:28:57;7.43;;;1.42;;
68523;SDS011;55524;51.380;13.372;2022-09-09T01:31:28;3.22;;;1.48;;
68523;SDS011;55524;51.380;13.372;2022-09-09T01:34:11;1.83;;;1.30;;
68523;SDS011;55524;51.380;13.372;2022-09-09T01:39:07;2.17;;;1.20;;
68523;SDS011;55524;51.380;13.372;2022-09-09T01:41:34;1.55;;;1.30;;
68523;SDS011;55524;51.380;13.372;2022-09-09T01:44:00;4.70;;;1.35;;
68523;SDS011;55524;51.380;13.372;2022-09-09T01:46:27;1.92;;;1.33;;
68523;SDS011;55524;51.380;13.372;2022-09-09T01:48:54;3.80;;;1.40;;
68523;SDS011;55524;51.380;13.372;2022-09-09T01:51:21;2.50;;;1.38;;
68523;SDS011;55524;51.380;13.372;2022-09-09T01:53:48;4.38;;;1.38;;
68523;SDS011;55524;51.380;13.372;2022-09-09T01:56:18;1.40;;;1.30;;
68523;SDS011;55524;51.380;13.372;2022-09-09T02:05:25;1.63;;;1.30;;
68523;SDS011;55524;51.380;13.372;2022-09-09T02:10:36;1.80;;;1.70;;
68523;SDS011;55524;51.380;13.372;2022-09-09T02:13:21;2.20;;;1.70;;
68523;SDS011;55524;51.380;13.372;2022-09-09T02:18:27;2.20;;;1.90;;
68523;SDS011;55524;51.380;13.372;2022-09-09T02:21:08;2.53;;;1.90;;
68523;SDS011;55524;51.380;13.372;2022-09-09T02:23:37;2.42;;;1.70;;
68523;SDS011;55524;51.380;13.372;2022-09-09T02:26:06;7.13;;;1.60;;
68523;SDS011;55524;51.380;13.372;2022-09-09T02:28:36;6.10;;;1.55;;
68523;SDS011;55524;51.380;13.372;2022-09-09T02:31:05;3.45;;;1.20;;
68523;SDS011;55524;51.380;13.372;2022-09-09T02:33:35;1.33;;;1.20;;
68523;SDS011;55524;51.380;13.372;2022-09-09T02:36:08;2.22;;;1.40;;
68523;SDS011;55524;51.380;13.372;2022-09-09T02:38:38;4.65;;;1.35;;
68523;SDS011;55524;51.380;13.372;2022-09-09T02:41:30;2.28;;;1.40;;
68523;SDS011;55524;51.380;13.372;2022-09-09T02:43:59;1.60;;;1.40;;
68523;SDS011;55524;51.380;13.372;2022-09-09T02:46:36;2.65;;;1.40;;
68523;SDS011;55524;51.380;13.372;2022-09-09T02:49:11;3.38;;;1.30;;
68523;SDS011;55524;51.380;13.372;2022-09-09T02:52:15;2.80;;;1.50;;
68523;SDS011;55524;51.380;13.372;2022-09-09T02:54:51;3.60;;;1.40;;
68523;SDS011;55524;51.380;13.372;2022-09-09T02:57:23;2.53;;;1.27;;
68523;SDS011;55524;51.380;13.372;2022-09-09T02:59:53;3.47;;;1.40;;
68523;SDS011;55524;51.380;13.372;2022-09-09T03:02:21;1.98;;;1.60;;
68523;SDS011;55524;51.380;13.372;2022-09-09T03:04:50;3.38;;;1.35;;
68523;SDS011;55524;51.380;13.372;2022-09-09T03:07:19;1.60;;;1.23;;
68523;SDS011;55524;51.380;13.372;2022-09-09T03:09:46;3.97;;;1.40;;
68523;SDS011;55524;51.380;13.372;2022-09-09T03:12:13;4.03;;;1.45;;
68523;SDS011;55524;51.380;13.372;2022-09-09T03:14:39;2.38;;;1.45;;
68523;SDS011;55524;51.380;13.372;2022-09-09T03:17:06;3.50;;;1.20;;
68523;SDS011;55524;51.380;13.372;2022-09-09T03:19:34;3.28;;;1.65;;
68523;SDS011;55524;51.380;13.372;2022-09-09T03:22:01;1.60;;;1.50;;
68523;SDS011;55524;51.380;13.372;2022-09-09T03:24:29;1.83;;;1.40;;
68523;SDS011;55524;51.380;13.372;2022-09-09T03:26:55;2.92;;;1.50;;
68523;SDS011;55524;51.380;13.372;2022-09-09T03:29:22;2.00;;;1.40;;
68523;SDS011;55524;51.380;13.372;2022-09-09T03:31:48;3.88;;;1.90;;
68523;SDS011;55524;51.380;13.372;2022-09-09T03:34:16;2.15;;;1.90;;
68523;SDS011;55524;51.380;13.372;2022-09-09T03:36:42;2.20;;;2.00;;
68523;SDS011;55524;51.380;13.372;2022-09-09T03:39:13;4.90;;;1.90;;
68523;SDS011;55524;51.380;13.372;2022-09-09T03:42:00;2.83;;;1.75;;
68523;SDS011;55524;51.380;13.372;2022-09-09T03:44:29;3.83;;;2.33;;
68523;SDS011;55524;51.380;13.372;2022-09-09T03:47:05;5.05;;;1.98;;
68523;SDS011;55524;51.380;13.372;2022-09-09T03:49:34;4.85;;;2.10;;
68523;SDS011;55524;51.380;13.372;2022-09-09T03:52:00;4.00;;;1.90;;
68523;SDS011;55524;51.380;13.372;2022-09-09T03:54:29;4.50;;;2.05;;
68523;SDS011;55524;51.380;13.372;2022-09-09T03:56:56;4.20;;;2.50;;
68523;SDS011;55524;51.380;13.372;2022-09-09T03:59:22;3.22;;;2.10;;
68523;SDS011;55524;51.380;13.372;2022-09-09T04:01:49;3.03;;;1.90;;
68523;SDS011;55524;51.380;13.372;2022-09-09T04:04:18;4.50;;;1.85;;
68523;SDS011;55524;51.380;13.372;2022-09-09T04:06:54;5.22;;;1.80;;
68523;SDS011;55524;51.380;13.372;2022-09-09T04:09:21;3.53;;;2.05;;
68523;SDS011;55524;51.380;13.372;2022-09-09T04:11:56;1.80;;;1.70;;
68523;SDS011;55524;51.380;13.372;2022-09-09T04:14:22;3.63;;;2.00;;
68523;SDS011;55524;51.380;13.372;2022-09-09T04:16:53;2.88;;;1.75;;
68523;SDS011;55524;51.380;13.372;2022-09-09T04:19:26;3.92;;;1.75;;
68523;SDS011;55524;51.380;13.372;2022-09-09T04:21:52;3.08;;;1.80;;
68523;SDS011;55524;51.380;13.372;2022-09-09T04:24:18;3.78;;;1.90;;
68523;SDS011;55524;51.380;13.372;2022-09-09T04:26:48;1.80;;;1.70;;
68523;SDS011;55524;51.380;13.372;2022-09-09T04:29:15;3.83;;;1.90;;
68523;SDS011;55524;51.380;13.372;2022-09-09T04:32:01;2.83;;;2.03;;
68523;SDS011;55524;51.380;13.372;2022-09-09T04:34:48;5.32;;;1.73;;
68523;SDS011;55524;51.380;13.372;2022-09-09T04:37:15;3.08;;;1.98;;
68523;SDS011;55524;51.380;13.372;2022-09-09T04:40:01;6.80;;;2.17;;
68523;SDS011;55524;51.380;13.372;2022-09-09T04:42:28;3.17;;;2.10;;
68523;SDS011;55524;51.380;13.372;2022-09-09T04:44:54;2.15;;;1.95;;
68523;SDS011;55524;51.380;13.372;2022-09-09T04:47:43;2.40;;;2.20;;
68523;SDS011;55524;51.380;13.372;2022-09-09T04:50:20;3.03;;;2.22;;
68523;SDS011;55524;51.380;13.372;2022-09-09T04:53:28;3.13;;;2.25;;
68523;SDS011;55524;51.380;13.372;2022-09-09T04:56:09;3.37;;;1.97;;
68523;SDS011;55524;51.380;13.372;2022-09-09T04:58:40;7.00;;;2.17;;
68523;SDS011;55524;51.380;13.372;2022-09-09T05:01:14;4.00;;;1.98;;
68523;SDS011;55524;51.380;13.372;2022-09-09T05:03:46;5.53;;;2.10;;
68523;SDS011;55524;51.380;13.372;2022-09-09T05:06:26;2.75;;;2.20;;
68523;SDS011;55524;51.380;13.372;2022-09-09T05:09:02;3.35;;;2.17;;
68523;SDS011;55524;51.380;13.372;2022-09-09T05:11:29;2.72;;;2.10;;
68523;SDS011;55524;51.380;13.372;2022-09-09T05:13:57;6.72;;;2.33;;
68523;SDS011;55524;51.380;13.372;2022-09-09T05:16:23;3.42;;;2.55;;
68523;SDS011;55524;51.380;13.372;2022-09-09T05:19:05;8.95;;;2.58;;
68523;SDS011;55524;51.380;13.372;2022-09-09T05:21:35;2.53;;;2.17;;
68523;SDS011;55524;51.380;13.372;2022-09-09T05:24:02;5.63;;;2.60;;
68523;SDS011;55524;51.380;13.372;2022-09-09T05:26:28;3.28;;;2.65;;
68523;SDS011;55524;51.380;13.372;2022-09-09T05:29:04;7.35;;;2.35;;
68523;SDS011;55524;51.380;13.372;2022-09-09T05:31:33;4.80;;;2.63;;
68523;SDS011;55524;51.380;13.372;2022-09-09T05:33:59;11.85;;;2.92;;
68523;SDS011;55524;51.380;13.372;2022-09-09T05:36:27;115.53;;;11.63;;
68523;SDS011;55524;51.380;13.372;2022-09-09T05:39:09;3.97;;;2.33;;
68523;SDS011;55524;51.380;13.372;2022-09-09T05:42:09;5.13;;;1.83;;
68523;SDS011;55524;51.380;13.372;2022-09-09T05:44:38;4.40;;;2.03;;
68523;SDS011;55524;51.380;13.372;2022-09-09T05:47:07;26.92;;;4.22;;
68523;SDS011;55524;51.380;13.372;2022-09-09T05:49:34;6.10;;;2.45;;
68523;SDS011;55524;51.380;13.372;2022-09-09T05:52:01;5.13;;;1.40;;
68523;SDS011;55524;51.380;13.372;2022-09-09T05:54:29;4.95;;;1.60;;
68523;SDS011;55524;51.380;13.372;2022-09-09T05:57:08;2.90;;;1.90;;
68523;SDS011;55524;51.380;13.372;2022-09-09T05:59:34;1.98;;;1.58;;
68523;SDS011;55524;51.380;13.372;2022-09-09T06:02:01;9.40;;;2.10;;
68523;SDS011;55524;51.380;13.372;2022-09-09T06:04:27;9.57;;;1.70;;
68523;SDS011;55524;51.380;13.372;2022-09-09T06:06:59;7.95;;;2.22;;
68523;SDS011;55524;51.380;13.372;2022-09-09T06:09:32;6.88;;;1.40;;
68523;SDS011;55524;51.380;13.372;2022-09-09T06:11:58;5.72;;;1.15;;
68523;SDS011;55524;51.380;13.372;2022-09-09T06:14:41;2.90;;;1.30;;
68523;SDS011;55524;51.380;13.372;2022-09-09T06:17:07;8.75;;;1.33;;
68523;SDS011;55524;51.380;13.372;2022-09-09T06:19:33;7.60;;;1.33;;
68523;SDS011;55524;51.380;13.372;2022-09-09T06:22:00;3.70;;;0.98;;
68523;SDS011;55524;51.380;13.372;2022-09-09T06:24:29;3.45;;;1.00;;
68523;SDS011;55524;51.380;13.372;2022-09-09T06:27:04;3.85;;;0.93;;
68523;SDS011;55524;51.380;13.372;2022-09-09T06:29:30;2.13;;;0.93;;
68523;SDS011;55524;51.380;13.372;2022-09-09T06:31:56;14.27;;;1.48;;
68523;SDS011;55524;51.380;13.372;2022-09-09T06:34:23;4.85;;;1.02;;
68523;SDS011;55524;51.380;13.372;2022-09-09T06:36:59;5.32;;;0.95;;
68523;SDS011;55524;51.380;13.372;2022-09-09T06:39:31;8.00;;;1.27;;
68523;SDS011;55524;51.380;13.372;2022-09-09T06:42:18;4.43;;;0.80;;
68523;SDS011;55524;51.380;13.372;2022-09-09T06:45:10;4.95;;;1.17;;
68523;SDS011;55524;51.380;13.372;2022-09-09T06:47:49;3.75;;;0.90;;
68523;SDS011;55524;51.380;13.372;2022-09-09T06:50:50;6.38;;;1.70;;
68523;SDS011;55524;51.380;13.372;2022-09-09T06:53:27;2.90;;;0.80;;
68523;SDS011;55524;51.380;13.372;2022-09-09T06:55:53;25.90;;;2.72;;
68523;SDS011;55524;51.380;13.372;2022-09-09T06:58:20;9.50;;;1.40;;
68523;SDS011;55524;51.380;13.372;2022-09-09T07:01:07;5.25;;;1.15;;
68523;SDS011;55524;51.380;13.372;2022-09-09T07:03:47;15.25;;;1.80;;
68523;SDS011;55524;51.380;13.372;2022-09-09T07:06:16;5.70;;;1.02;;
68523;SDS011;55524;51.380;13.372;2022-09-09T07:08:48;48.42;;;5.28;;
68523;SDS011;55524;51.380;13.372;2022-09-09T07:11:15;20.33;;;2.40;;
68523;SDS011;55524;51.380;13.372;2022-09-09T07:13:45;9.25;;;1.52;;
68523;SDS011;55524;51.380;13.372;2022-09-09T07:16:12;5.65;;;0.88;;
68523;SDS011;55524;51.380;13.372;2022-09-09T07:18:43;8.75;;;1.70;;
68523;SDS011;55524;51.380;13.372;2022-09-09T07:21:13;5.28;;;0.93;;
68523;SDS011;55524;51.380;13.372;2022-09-09T07:23:41;8.63;;;1.58;;
68523;SDS011;55524;51.380;13.372;2022-09-09T07:26:14;24.45;;;2.75;;
68523;SDS011;55524;51.380;13.372;2022-09-09T07:29:07;2.05;;;0.80;;
68523;SDS011;55524;51.380;13.372;2022-09-09T07:32:08;8.38;;;1.17;;
68523;SDS011;55524;51.380;13.372;2022-09-09T07:34:55;2.72;;;0.90;;
68523;SDS011;55524;51.380;13.372;2022-09-09T07:38:00;6.25;;;0.90;;
68523;SDS011;55524;51.380;13.372;2022-09-09T07:40:26;7.78;;;1.20;;
68523;SDS011;55524;51.380;13.372;2022-09-09T07:42:54;1.42;;;0.60;;
68523;SDS011;55524;51.380;13.372;2022-09-09T07:45:24;3.55;;;0.77;;
68523;SDS011;55524;51.380;13.372;2022-09-09T07:47:53;1.63;;;0.80;;
68523;SDS011;55524;51.380;13.372;2022-09-09T07:50:30;8.45;;;1.10;;
68523;SDS011;55524;51.380;13.372;2022-09-09T07:52:57;5.30;;;1.10;;
68523;SDS011;55524;51.380;13.372;2022-09-09T07:55:24;3.60;;;1.00;;
68523;SDS011;55524;51.380;13.372;2022-09-09T07:57:52;21.13;;;2.58;;
68523;SDS011;55524;51.380;13.372;2022-09-09T08:00:19;3.22;;;0.75;;
68523;SDS011;55524;51.380;13.372;2022-09-09T08:02:47;6.55;;;1.00;;
68523;SDS011;55524;51.380;13.372;2022-09-09T08:05:22;7.15;;;0.80;;
68523;SDS011;55524;51.380;13.372;2022-09-09T08:07:49;4.10;;;0.93;;
68523;SDS011;55524;51.380;13.372;2022-09-09T08:10:15;2.88;;;0.90;;
68523;SDS011;55524;51.380;13.372;2022-09-09T08:12:43;3.72;;;0.80;;
68523;SDS011;55524;51.380;13.372;2022-09-09T08:15:31;74.72;;;8.43;;
68523;SDS011;55524;51.380;13.372;2022-09-09T08:18:16;5.25;;;1.02;;
68523;SDS011;55524;51.380;13.372;2022-09-09T08:24:14;13.45;;;1.85;;
68523;SDS011;55524;51.380;13.372;2022-09-09T08:27:13;3.67;;;1.15;;
68523;SDS011;55524;51.380;13.372;2022-09-09T08:29:51;34.10;;;3.38;;
68523;SDS011;55524;51.380;13.372;2022-09-09T08:32:43;2.45;;;0.90;;
68523;SDS011;55524;51.380;13.372;2022-09-09T08:35:16;7.82;;;1.25;;
68523;SDS011;55524;51.380;13.372;2022-09-09T08:38:09;9.33;;;1.10;;
68523;SDS011;55524;51.380;13.372;2022-09-09T08:41:09;3.78;;;0.80;;
68523;SDS011;55524;51.380;13.372;2022-09-09T08:44:24;2.15;;;0.70;;
68523;SDS011;55524;51.380;13.372;2022-09-09T08:47:44;4.28;;;1.40;;
68523;SDS011;55524;51.380;13.372;2022-09-09T08:50:49;5.15;;;1.00;;
68523;SDS011;55524;51.380;13.372;2022-09-09T08:53:29;2.97;;;0.77;;
68523;SDS011;55524;51.380;13.372;2022-09-09T08:56:23;1.83;;;0.85;;
68523;SDS011;55524;51.380;13.372;2022-09-09T08:59:30;3.95;;;0.95;;
68523;SDS011;55524;51.380;13.372;2022-09-09T09:04:57;3.92;;;0.90;;
68523;SDS011;55524;51.380;13.372;2022-09-09T09:13:37;2.42;;;0.70;;
68523;SDS011;55524;51.380;13.372;2022-09-09T09:16:33;1.67;;;0.73;;
68523;SDS011;55524;51.380;13.372;2022-09-09T09:19:07;2.70;;;0.60;;
68523;SDS011;55524;51.380;13.372;2022-09-09T09:26:47;1.83;;;0.60;;
68523;SDS011;55524;51.380;13.372;2022-09-09T09:29:14;4.63;;;0.93;;
68523;SDS011;55524;51.380;13.372;2022-09-09T09:32:00;1.95;;;0.82;;
68523;SDS011;55524;51.380;13.372;2022-09-09T09:34:28;2.65;;;0.82;;
68523;SDS011;55524;51.380;13.372;2022-09-09T09:36:57;1.38;;;0.70;;
68523;SDS011;55524;51.380;13.372;2022-09-09T09:39:30;2.92;;;0.70;;
68523;SDS011;55524;51.380;13.372;2022-09-09T09:42:09;2.58;;;0.80;;
68523;SDS011;55524;51.380;13.372;2022-09-09T09:44:39;4.13;;;0.75;;
68523;SDS011;55524;51.380;13.372;2022-09-09T09:47:17;3.00;;;0.80;;
68523;SDS011;55524;51.380;13.372;2022-09-09T09:49:52;2.33;;;1.20;;
68523;SDS011;55524;51.380;13.372;2022-09-09T09:52:21;1.45;;;0.70;;
68523;SDS011;55524;51.380;13.372;2022-09-09T09:57:32;4.47;;;0.80;;
68523;SDS011;55524;51.380;13.372;2022-09-09T10:02:49;2.20;;;0.85;;
68523;SDS011;55524;51.380;13.372;2022-09-09T10:05:56;1.35;;;0.57;;
68523;SDS011;55524;51.380;13.372;2022-09-09T10:08:23;3.92;;;0.70;;
68523;SDS011;55524;51.380;13.372;2022-09-09T10:10:53;2.00;;;0.80;;
68523;SDS011;55524;51.380;13.372;2022-09-09T10:13:27;2.13;;;0.70;;
68523;SDS011;55524;51.380;13.372;2022-09-09T10:24:26;1.50;;;0.60;;
68523;SDS011;55524;51.380;13.372;2022-09-09T10:38:48;6.15;;;0.85;;
68523;SDS011;55524;51.380;13.372;2022-09-09T10:56:15;3.08;;;0.80;;
68523;SDS011;55524;51.380;13.372;2022-09-09T11:04:22;1.52;;;0.80;;
68523;SDS011;55524;51.380;13.372;2022-09-09T11:07:16;4.38;;;1.10;;
68523;SDS011;55524;51.380;13.372;2022-09-09T11:10:19;4.68;;;0.95;;
68523;SDS011;55524;51.380;13.372;2022-09-09T11:12:54;2.55;;;0.73;;
68523;SDS011;55524;51.380;13.372;2022-09-09T11:18:26;2.05;;;0.80;;
68523;SDS011;55524;51.380;13.372;2022-09-09T11:20:58;3.38;;;0.90;;
68523;SDS011;55524;51.380;13.372;2022-09-09T11:23:28;2.65;;;0.90;;
68523;SDS011;55524;51.380;13.372;2022-09-09T11:26:13;4.47;;;0.88;;
68523;SDS011;55524;51.380;13.372;2022-09-09T11:29:13;3.63;;;0.80;;
68523;SDS011;55524;51.380;13.372;2022-09-09T11:40:39;2.00;;;1.00;;
68523;SDS011;55524;51.380;13.372;2022-09-09T11:43:24;11.00;;;1.58;;
68523;SDS011;55524;51.380;13.372;2022-09-09T11:45:54;15.52;;;1.77;;
68523;SDS011;55524;51.380;13.372;2022-09-09T11:51:33;2.03;;;0.90;;
68523;SDS011;55524;51.380;13.372;2022-09-09T11:54:01;3.40;;;0.90;;
68523;SDS011;55524;51.380;13.372;2022-09-09T11:57:05;4.53;;;0.95;;
68523;SDS011;55524;51.380;13.372;2022-09-09T12:03:03;3.22;;;0.77;;
68523;SDS011;55524;51.380;13.372;2022-09-09T12:05:51;2.13;;;0.80;;
68523;SDS011;55524;51.380;13.372;2022-09-09T12:08:55;3.42;;;1.20;;
68523;SDS011;55524;51.380;13.372;2022-09-09T12:11:33;2.83;;;0.75;;
68523;SDS011;55524;51.380;13.372;2022-09-09T12:17:19;2.05;;;1.00;;
68523;SDS011;55524;51.380;13.372;2022-09-09T12:33:22;2.00;;;0.80;;
68523;SDS011;55524;51.380;13.372;2022-09-09T12:36:11;5.75;;;0.90;;
68523;SDS011;55524;51.380;13.372;2022-09-09T12:38:59;3.08;;;0.80;;
68523;SDS011;55524;51.380;13.372;2022-09-09T12:44:22;1.60;;;0.77;;
68523;SDS011;55524;51.380;13.372;2022-09-09T12:46:50;2.80;;;0.80;;
68523;SDS011;55524;51.380;13.372;2022-09-09T12:52:16;4.32;;;0.80;;
68523;SDS011;55524;51.380;13.372;2022-09-09T12:54:46;2.40;;;0.80;;
68523;SDS011;55524;51.380;13.372;2022-09-09T12:57:17;4.15;;;0.70;;
68523;SDS011;55524;51.380;13.372;2022-09-09T13:00:16;3.45;;;0.80;;
68523;SDS011;55524;51.380;13.372;2022-09-09T13:03:14;3.08;;;0.70;;
68523;SDS011;55524;51.380;13.372;2022-09-09T13:05:42;3.22;;;0.57;;
68523;SDS011;55524;51.380;13.372;2022-09-09T13:08:10;2.42;;;0.60;;
68523;SDS011;55524;51.380;13.372;2022-09-09T13:10:39;1.30;;;0.68;;
68523;SDS011;55524;51.380;13.372;2022-09-09T13:13:15;2.38;;;0.80;;
68523;SDS011;55524;51.380;13.372;2022-09-09T13:15:52;3.35;;;0.63;;
68523;SDS011;55524;51.380;13.372;2022-09-09T13:18:30;2.67;;;0.80;;
68523;SDS011;55524;51.380;13.372;2022-09-09T13:21:03;1.95;;;0.60;;
68523;SDS011;55524;51.380;13.372;2022-09-09T13:23:32;1.92;;;0.63;;
68523;SDS011;55524;51.380;13.372;2022-09-09T13:26:02;1.85;;;0.65;;
68523;SDS011;55524;51.380;13.372;2022-09-09T13:28:49;1.75;;;0.68;;
68523;SDS011;55524;51.380;13.372;2022-09-09T13:31:36;1.55;;;0.60;;
68523;SDS011;55524;51.380;13.372;2022-09-09T13:34:12;2.80;;;0.60;;
68523;SDS011;55524;51.380;13.372;2022-09-09T13:36:59;2.75;;;0.80;;
68523;SDS011;55524;51.380;13.372;2022-09-09T13:39:30;3.58;;;0.70;;
68523;SDS011;55524;51.380;13.372;2022-09-09T13:41:59;2.47;;;0.50;;
68523;SDS011;55524;51.380;13.372;2022-09-09T13:44:35;1.92;;;0.52;;
68523;SDS011;55524;51.380;13.372;2022-09-09T13:47:31;2.17;;;0.60;;
68523;SDS011;55524;51.380;13.372;2022-09-09T13:52:48;6.72;;;1.00;;
68523;SDS011;55524;51.380;13.372;2022-09-09T13:55:19;1.65;;;0.60;;
68523;SDS011;55524;51.380;13.372;2022-09-09T14:00:18;3.08;;;0.52;;
68523;SDS011;55524;51.380;13.372;2022-09-09T14:02:45;15.88;;;1.15;;
68523;SDS011;55524;51.380;13.372;2022-09-09T14:05:12;3.47;;;0.80;;
68523;SDS011;55524;51.380;13.372;2022-09-09T14:07:41;4.90;;;0.85;;
68523;SDS011;55524;51.380;13.372;2022-09-09T14:10:08;6.13;;;0.90;;
68523;SDS011;55524;51.380;13.372;2022-09-09T14:12:36;3.33;;;0.70;;
68523;SDS011;55524;51.380;13.372;2022-09-09T14:15:02;1.95;;;0.68;;
68523;SDS011;55524;51.380;13.372;2022-09-09T14:17:30;2.22;;;0.70;;
68523;SDS011;55524;51.380;13.372;2022-09-09T14:19:57;2.78;;;0.70;;
68523;SDS011;55524;51.380;13.372;2022-09-09T14:22:23;1.92;;;0.70;;
68523;SDS011;55524;51.380;13.372;2022-09-09T14:24:51;1.60;;;0.60;;
68523;SDS011;55524;51.380;13.372;2022-09-09T14:27:28;2.58;;;1.00;;
68523;SDS011;55524;51.380;13.372;2022-09-09T14:29:55;1.48;;;0.65;;
68523;SDS011;55524;51.380;13.372;2022-09-09T14:32:22;2.80;;;0.90;;
68523;SDS011;55524;51.380;13.372;2022-09-09T14:34:49;2.45;;;0.82;;
68523;SDS011;55524;51.380;13.372;2022-09-09T14:37:18;2.55;;;1.40;;
68523;SDS011;55524;51.380;13.372;2022-09-09T14:39:45;3.40;;;0.85;;
68523;SDS011;55524;51.380;13.372;2022-09-09T14:42:16;1.75;;;0.80;;
68523;SDS011;55524;51.380;13.372;2022-09-09T14:44:44;2.95;;;0.77;;
68523;SDS011;55524;51.380;13.372;2022-09-09T14:47:11;3.63;;;0.60;;
68523;SDS011;55524;51.380;13.372;2022-09-09T14:49:37;2.08;;;0.65;;
68523;SDS011;55524;51.380;13.372;2022-09-09T14:52:04;4.57;;;0.90;;
68523;SDS011;55524;51.380;13.372;2022-09-09T14:54:31;20.90;;;11.45;;
68523;SDS011;55524;51.380;13.372;2022-09-09T14:56:58;53.60;;;16.60;;
68523;SDS011;55524;51.380;13.372;2022-09-09T14:59:24;2.72;;;1.00;;
68523;SDS011;55524;51.380;13.372;2022-09-09T15:01:51;21.67;;;16.45;;
68523;SDS011;55524;51.380;13.372;2022-09-09T15:04:18;8.05;;;1.77;;
68523;SDS011;55524;51.380;13.372;2022-09-09T15:06:45;32.70;;;18.88;;
68523;SDS011;55524;51.380;13.372;2022-09-09T15:09:13;19.95;;;13.25;;
68523;SDS011;55524;51.380;13.372;2022-09-09T15:11:40;3.45;;;2.00;;
68523;SDS011;55524;51.380;13.372;2022-09-09T15:14:07;5.53;;;3.17;;
68523;SDS011;55524;51.380;13.372;2022-09-09T15:16:35;7.70;;;4.70;;
68523;SDS011;55524;51.380;13.372;2022-09-09T15:19:20;5.43;;;2.97;;
68523;SDS011;55524;51.380;13.372;2022-09-09T15:21:46;4.00;;;0.80;;
68523;SDS011;55524;51.380;13.372;2022-09-09T15:24:14;5.32;;;3.33;;
68523;SDS011;55524;51.380;13.372;2022-09-09T15:26:41;7.38;;;4.70;;
68523;SDS011;55524;51.380;13.372;2022-09-09T15:29:07;8.63;;;4.00;;
68523;SDS011;55524;51.380;13.372;2022-09-09T15:31:34;30.48;;;20.23;;
68523;SDS011;55524;51.380;13.372;2022-09-09T15:34:01;14.00;;;8.13;;
68523;SDS011;55524;51.380;13.372;2022-09-09T15:36:30;3.25;;;1.52;;
68523;SDS011;55524;51.380;13.372;2022-09-09T15:38:59;4.88;;;2.55;;
68523;SDS011;55524;51.380;13.372;2022-09-09T15:41:26;6.88;;;1.95;;
68523;SDS011;55524;51.380;13.372;2022-09-09T15:43:54;11.15;;;7.47;;
68523;SDS011;55524;51.380;13.372;2022-09-09T15:46:23;17.80;;;4.18;;
68523;SDS011;55524;51.380;13.372;2022-09-09T15:49:10;4.05;;;1.48;;
68523;SDS011;55524;51.380;13.372;2022-09-09T15:51:43;17.83;;;8.65;;
68523;SDS011;55524;51.380;13.372;2022-09-09T15:54:13;4.15;;;0.77;;
68523;SDS011;55524;51.380;13.372;2022-09-09T15:56:47;5.15;;;0.90;;
68523;SDS011;55524;51.380;13.372;2022-09-09T15:59:21;7.15;;;0.90;;
68523;SDS011;55524;51.380;13.372;2022-09-09T16:01:51;5.43;;;1.23;;
68523;SDS011;55524;51.380;13.372;2022-09-09T16:04:18;5.43;;;0.93;;
68523;SDS011;55524;51.380;13.372;2022-09-09T16:07:02;5.65;;;1.00;;
68523;SDS011;55524;51.380;13.372;2022-09-09T16:09:30;6.80;;;0.82;;
68523;SDS011;55524;51.380;13.372;2022-09-09T16:11:58;3.08;;;0.80;;
68523;SDS011;55524;51.380;13.372;2022-09-09T16:14:26;5.38;;;0.88;;
68523;SDS011;55524;51.380;13.372;2022-09-09T16:16:53;5.90;;;0.70;;
68523;SDS011;55524;51.380;13.372;2022-09-09T16:19:19;5.68;;;1.02;;
68523;SDS011;55524;51.380;13.372;2022-09-09T16:21:46;3.47;;;0.70;;
68523;SDS011;55524;51.380;13.372;2022-09-09T16:24:16;4.10;;;0.77;;
68523;SDS011;55524;51.380;13.372;2022-09-09T16:26:46;2.72;;;0.80;;
68523;SDS011;55524;51.380;13.372;2022-09-09T16:29:14;2.15;;;0.60;;
68523;SDS011;55524;51.380;13.372;2022-09-09T16:31:43;4.18;;;0.70;;
68523;SDS011;55524;51.380;13.372;2022-09-09T16:34:11;1.70;;;0.60;;
68523;SDS011;55524;51.380;13.372;2022-09-09T16:36:58;8.55;;;1.17;;
68523;SDS011;55524;51.380;13.372;2022-09-09T16:39:26;12.43;;;2.00;;
68523;SDS011;55524;51.380;13.372;2022-09-09T16:41:53;11.80;;;1.58;;
68523;SDS011;55524;51.380;13.372;2022-09-09T16:44:37;4.63;;;1.20;;
68523;SDS011;55524;51.380;13.372;2022-09-09T16:47:21;1.42;;;0.70;;
68523;SDS011;55524;51.380;13.372;2022-09-09T16:49:48;7.25;;;0.90;;
68523;SDS011;55524;51.380;13.372;2022-09-09T16:52:35;3.90;;;0.88;;
68523;SDS011;55524;51.380;13.372;2022-09-09T16:55:02;2.95;;;1.55;;
68523;SDS011;55524;51.380;13.372;2022-09-09T16:57:31;9.00;;;2.85;;
68523;SDS011;55524;51.380;13.372;2022-09-09T16:59:57;11.98;;;4.15;;
68523;SDS011;55524;51.380;13.372;2022-09-09T17:02:26;155.38;;;21.15;;
68523;SDS011;55524;51.380;13.372;2022-09-09T17:04:54;7.07;;;3.90;;
68523;SDS011;55524;51.380;13.372;2022-09-09T17:07:22;18.58;;;8.23;;
68523;SDS011;55524;51.380;13.372;2022-09-09T17:09:48;28.88;;;16.00;;
68523;SDS011;55524;51.380;13.372;2022-09-09T17:12:27;151.77;;;88.75;;
68523;SDS011;55524;51.380;13.372;2022-09-09T17:14:53;197.77;;;134.10;;
68523;SDS011;55524;51.380;13.372;2022-09-09T17:20:34;89.65;;;64.85;;
68523;SDS011;55524;51.380;13.372;2022-09-09T17:23:49;53.28;;;40.50;;
68523;SDS011;55524;51.380;13.372;2022-09-09T17:26:22;16.60;;;13.65;;
68523;SDS011;55524;51.380;13.372;2022-09-09T17:29:09;7.43;;;2.92;;
68523;SDS011;55524;51.380;13.372;2022-09-09T17:31:36;2.92;;;1.30;;
68523;SDS011;55524;51.380;13.372;2022-09-09T17:34:02;2.28;;;0.90;;
68523;SDS011;55524;51.380;13.372;2022-09-09T17:36:31;2.03;;;1.10;;
68523;SDS011;55524;51.380;13.372;2022-09-09T17:38:59;4.90;;;1.08;;
68523;SDS011;55524;51.380;13.372;2022-09-09T17:41:27;3.80;;;1.50;;
68523;SDS011;55524;51.380;13.372;2022-09-09T17:44:14;3.58;;;1.63;;
68523;SDS011;55524;51.380;13.372;2022-09-09T17:46:44;3.70;;;1.35;;
68523;SDS011;55524;51.380;13.372;2022-09-09T17:49:15;4.90;;;1.85;;
68523;SDS011;55524;51.380;13.372;2022-09-09T17:51:44;7.05;;;2.28;;